Time;durP1;ratioP1;P1;durP2;ratioP2;P2;SDS_P1;SDS_P2;PMS_P1;PMS_P2;Temp;Humidity;BMP_temperature;BMP_pressure;BME280_temperature;BME280_humidity;BME280_pressure;Samples;Min_cycle;Max_cycle;Signal;HPM_P1;HPM_P2
2022/09/16 00:01:44;;;;;;;21.00;9.20;;;;;;;14.84;75.33;97802.24;105987;1274;97905;-65
2022/09/16 00:04:16;;;;;;;20.70;9.20;;;;;;;14.84;75.30;97804.52;106090;1274;108416;-64
2022/09/16 00:06:44;;;;;;;18.80;8.00;;;;;;;14.83;75.31;97806.39;106084;1274;96397;-65
2022/09/16 00:09:12;;;;;;;21.30;9.80;;;;;;;14.79;75.26;97811.15;106006;1274;97821;-64
2022/09/16 00:11:40;;;;;;;20.80;9.90;;;;;;;14.77;75.34;97811.28;106124;1274;111024;-65
2022/09/16 00:14:09;;;;;;;21.60;9.70;;;;;;;14.74;75.33;97808.64;106216;1274;97869;-65
2022/09/16 00:16:37;;;;;;;20.70;9.80;;;;;;;14.73;75.37;97806.30;106188;1274;108351;-66
2022/09/16 00:19:05;;;;;;;20.20;10.30;;;;;;;14.73;75.42;97806.06;106213;1274;98550;-64
2022/09/16 00:21:35;;;;;;;20.40;9.90;;;;;;;14.73;75.42;97807.50;106084;1274;97874;-63
2022/09/16 00:24:04;;;;;;;23.10;10.70;;;;;;;14.73;75.46;97801.41;106125;1274;111894;-65
2022/09/16 00:26:33;;;;;;;22.70;11.40;;;;;;;14.73;75.31;97802.35;106053;1274;95381;-65
2022/09/16 00:29:02;;;;;;;22.30;11.90;;;;;;;14.71;75.34;97808.10;105972;1274;107977;-66
2022/09/16 00:31:31;;;;;;;22.90;11.30;;;;;;;14.69;75.35;97811.64;106011;1274;98058;-64
2022/09/16 00:34:02;;;;;;;25.40;12.50;;;;;;;14.67;75.32;97810.08;106070;1274;97809;-64
2022/09/16 00:36:30;;;;;;;25.40;13.40;;;;;;;14.64;75.38;97811.56;106006;1274;111210;-63
2022/09/16 00:38:58;;;;;;;23.50;12.50;;;;;;;14.60;75.28;97811.38;105983;1274;97923;-66
2022/09/16 00:41:35;;;;;;;22.70;12.10;;;;;;;14.56;75.39;97808.05;105972;1274;108324;-64
2022/09/16 00:44:26;;;;;;;24.50;12.90;;;;;;;14.54;75.39;97809.23;106013;1274;98683;-66
2022/09/16 00:46:55;;;;;;;26.50;12.60;;;;;;;14.49;75.41;97817.39;106163;1274;97912;-65
2022/09/16 00:49:30;;;;;;;27.30;12.70;;;;;;;14.46;75.40;97814.59;106152;1274;112084;-63
2022/09/16 00:52:03;;;;;;;25.70;13.30;;;;;;;14.42;75.36;97817.96;106131;1274;97892;-65
2022/09/16 00:54:34;;;;;;;24.20;12.20;;;;;;;14.39;75.39;97818.30;106050;1274;107635;-64
2022/09/16 00:57:06;;;;;;;28.00;12.80;;;;;;;14.34;75.40;97822.58;105985;1274;98316;-63
2022/09/16 00:59:41;;;;;;;24.80;12.80;;;;;;;14.33;75.48;97822.70;105933;1274;97899;-65
2022/09/16 01:02:12;;;;;;;24.30;14.00;;;;;;;14.32;75.49;97821.43;107911;1274;111517;-65
2022/09/16 01:04:50;;;;;;;29.10;15.30;;;;;;;14.30;75.54;97825.71;107949;1274;95700;-64
2022/09/16 01:07:26;;;;;;;30.00;14.60;;;;;;;14.29;75.49;97825.80;107927;1274;107716;-64
2022/09/16 01:09:54;;;;;;;30.00;15.90;;;;;;;14.27;75.50;97824.73;106980;1274;97891;-65
2022/09/16 01:12:28;;;;;;;29.70;15.80;;;;;;;14.27;75.45;97827.82;106014;1274;97765;-66
2022/09/16 01:14:58;;;;;;;27.00;15.40;;;;;;;14.27;75.51;97829.19;106124;1274;111287;-67
2022/09/16 01:17:42;;;;;;;29.50;17.00;;;;;;;14.29;75.47;97832.95;106018;1274;97848;-68
2022/09/16 01:20:20;;;;;;;27.50;15.30;;;;;;;14.28;75.56;97835.67;105994;1274;108180;-66
2022/09/16 01:23:29;;;;;;;28.50;15.40;;;;;;;14.27;75.48;97833.86;106033;1274;95230;-65
2022/09/16 01:26:35;;;;;;;30.60;17.40;;;;;;;14.24;75.46;97833.27;106002;1274;95642;-65
2022/09/16 01:29:25;;;;;;;30.50;18.00;;;;;;;14.22;75.58;97841.33;105988;1274;111017;-65
2022/09/16 01:32:08;;;;;;;28.90;17.70;;;;;;;14.21;75.53;97849.72;106008;1274;95366;-65
2022/09/16 01:35:08;;;;;;;31.50;18.80;;;;;;;14.18;75.58;97853.62;106023;1274;107941;-66
2022/09/16 01:37:55;;;;;;;31.00;18.50;;;;;;;14.15;75.61;97853.00;105964;1274;97969;-65
2022/09/16 01:40:41;;;;;;;29.90;17.30;;;;;;;14.13;75.65;97855.45;106164;1274;97969;-66
2022/09/16 01:43:36;;;;;;;30.90;17.80;;;;;;;14.14;75.74;97858.98;106144;1274;112010;-63
2022/09/16 01:46:16;;;;;;;31.40;17.30;;;;;;;14.14;75.68;97858.43;106158;1274;97893;-65
2022/09/16 01:48:56;;;;;;;30.20;17.70;;;;;;;14.12;75.64;97854.34;105988;1274;110525;-64
2022/09/16 01:51:39;;;;;;;30.00;17.90;;;;;;;14.11;75.67;97856.10;106131;1274;97864;-65
2022/09/16 01:54:10;;;;;;;30.70;19.20;;;;;;;14.09;75.63;97856.98;106175;1274;97899;-66
2022/09/16 01:56:44;;;;;;;33.30;18.20;;;;;;;14.08;75.65;97860.86;106152;1274;111994;-65
2022/09/16 01:59:25;;;;;;;30.90;18.20;;;;;;;14.06;75.71;97860.54;106083;1274;96144;-66
2022/09/16 02:02:13;;;;;;;32.10;18.50;;;;;;;14.03;75.75;97863.33;106175;1274;107746;-66
2022/09/16 02:04:56;;;;;;;28.10;17.60;;;;;;;14.01;75.70;97863.41;106062;1274;98576;-65
2022/09/16 02:07:30;;;;;;;30.30;16.70;;;;;;;14.00;75.76;97863.27;106094;1274;96386;-64
2022/09/16 02:10:08;;;;;;;30.20;16.20;;;;;;;14.00;75.67;97868.09;106085;1274;111418;-65
2022/09/16 02:12:41;;;;;;;26.30;15.80;;;;;;;13.98;75.68;97867.72;106029;1274;97870;-66
2022/09/16 02:15:12;;;;;;;;;;;;;;;13.97;75.72;97866.30;106100;1274;107739;-66
2022/09/16 02:17:46;;;;;;;25.80;15.00;;;;;;;13.95;75.80;97869.14;106072;1274;97883;-65
2022/09/16 02:20:19;;;;;;;28.70;15.40;;;;;;;13.94;75.70;97868.14;106115;1274;95257;-65
2022/09/16 02:22:51;;;;;;;;;;;;;;;13.95;75.82;97870.44;106138;1274;111060;-66
2022/09/16 02:25:23;;;;;;;26.30;15.50;;;;;;;13.93;75.85;97873.52;106116;1274;97935;-66
2022/09/16 02:27:52;;;;;;;26.70;15.70;;;;;;;13.91;75.74;97879.02;106021;1274;107572;-68
2022/09/16 02:30:22;;;;;;;28.30;16.00;;;;;;;13.89;75.73;97882.41;106117;1274;97911;-64
2022/09/16 02:32:59;;;;;;;29.80;17.10;;;;;;;13.88;75.73;97876.56;106034;1274;97870;-63
2022/09/16 02:35:32;;;;;;;29.40;17.50;;;;;;;13.86;75.73;97879.38;106064;1274;111930;-67
2022/09/16 02:38:16;;;;;;;30.80;17.90;;;;;;;13.85;75.82;97886.95;106068;1274;97975;-66
2022/09/16 02:40:58;;;;;;;29.10;18.00;;;;;;;13.83;75.80;97884.52;106104;1274;108600;-65
2022/09/16 02:43:28;;;;;;;32.10;17.30;;;;;;;13.81;75.78;97886.34;106113;1274;97805;-65
2022/09/16 02:46:14;;;;;;;28.30;16.10;;;;;;;13.79;75.76;97885.49;106123;1274;97897;-64
2022/09/16 02:48:58;;;;;;;29.40;18.20;;;;;;;13.75;75.71;97879.95;106122;1274;112002;-67
2022/09/16 02:51:44;;;;;;;29.70;17.70;;;;;;;13.74;75.78;97881.50;106201;1274;97869;-66
2022/09/16 02:54:34;;;;;;;29.00;16.50;;;;;;;13.75;75.87;97878.42;106056;1274;107434;-68
2022/09/16 02:57:04;;;;;;;31.80;16.80;;;;;;;13.75;75.85;97893.00;106050;1274;97892;-66
2022/09/16 02:59:32;;;;;;;29.10;17.60;;;;;;;13.76;75.88;97895.16;106109;1274;95305;-64
2022/09/16 03:02:01;;;;;;;31.30;18.20;;;;;;;13.77;75.91;97899.55;106111;1274;110623;-65
2022/09/16 03:04:34;;;;;;;29.30;17.30;;;;;;;13.77;75.87;97900.05;105982;1274;99013;-65
2022/09/16 03:07:08;;;;;;;27.70;16.70;;;;;;;13.76;75.86;97895.73;105999;1274;107136;-65
2022/09/16 03:09:43;;;;;;;30.90;17.20;;;;;;;13.76;75.90;97894.11;105996;1274;97962;-65
2022/09/16 03:12:50;;;;;;;32.00;18.50;;;;;;;13.77;75.87;97888.73;106021;1274;97899;-67
2022/09/16 03:15:52;;;;;;;30.90;17.60;;;;;;;13.75;75.92;97890.32;105976;1274;113155;-66
2022/09/16 03:18:29;;;;;;;32.20;17.50;;;;;;;13.74;75.97;97894.55;105980;1274;98637;-65
2022/09/16 03:21:21;;;;;;;29.10;16.30;;;;;;;13.74;75.97;97899.33;106074;1274;107742;-65
2022/09/16 03:24:05;;;;;;;28.50;16.50;;;;;;;13.74;75.89;97900.80;106091;1274;97849;-65
2022/09/16 03:27:20;;;;;;;27.50;16.90;;;;;;;13.72;75.89;97898.86;106030;1274;97883;-66
2022/09/16 03:30:00;;;;;;;30.70;17.30;;;;;;;13.69;75.95;97897.70;105770;1275;112499;-68
2022/09/16 03:32:44;;;;;;;29.70;16.70;;;;;;;13.70;75.97;97898.82;105990;1274;95382;-67
2022/09/16 03:35:47;;;;;;;29.10;18.90;;;;;;;13.71;76.01;97899.09;106069;1274;107291;-65
2022/09/16 03:38:17;;;;;;;29.40;17.10;;;;;;;13.69;75.96;97897.27;106073;1274;97956;-65
2022/09/16 03:40:47;;;;;;;28.90;16.90;;;;;;;13.70;75.92;97899.25;106151;1274;97960;-70
2022/09/16 03:43:16;;;;;;;26.70;16.70;;;;;;;13.69;75.98;97901.23;106121;1274;111461;-64
2022/09/16 03:45:45;;;;;;;28.50;17.20;;;;;;;13.69;75.98;97899.64;106133;1274;95707;-66
2022/09/16 03:48:14;;;;;;;31.50;18.50;;;;;;;13.69;76.05;97906.20;106113;1274;107863;-66
2022/09/16 03:50:43;;;;;;;29.90;17.80;;;;;;;13.70;75.94;97907.59;106137;1276;98573;-68
2022/09/16 03:53:11;;;;;;;29.80;18.60;;;;;;;13.68;75.93;97908.79;104494;1274;2151509;-65
2022/09/16 03:55:40;;;;;;;34.50;18.70;;;;;;;13.68;75.99;97905.13;106101;1274;111995;-65
2022/09/16 03:58:08;;;;;;;28.50;17.40;;;;;;;13.68;75.99;97907.23;106111;1274;96216;-65
2022/09/16 04:00:36;;;;;;;30.20;18.40;;;;;;;13.68;76.00;97906.98;105992;1274;108720;-65
2022/09/16 04:03:05;;;;;;;29.20;16.40;;;;;;;13.67;75.94;97906.48;106151;1274;97957;-65
2022/09/16 04:05:33;;;;;;;32.00;19.00;;;;;;;13.61;75.90;97906.52;106176;1274;95206;-66
2022/09/16 04:08:01;;;;;;;26.80;16.50;;;;;;;13.58;75.95;97903.48;106131;1274;111060;-65
2022/09/16 04:10:30;;;;;;;32.30;19.00;;;;;;;13.54;75.87;97906.86;106159;1274;97963;-64
2022/09/16 04:13:00;;;;;;;26.40;16.00;;;;;;;13.51;75.95;97905.00;106140;1274;108240;-64
2022/09/16 04:15:28;;;;;;;31.30;16.40;;;;;;;13.50;76.01;97902.70;106014;1274;97995;-65
2022/09/16 04:17:56;;;;;;;30.20;17.70;;;;;;;13.50;76.01;97900.19;106060;1274;98008;-65
2022/09/16 04:20:25;;;;;;;29.10;16.40;;;;;;;13.51;75.87;97901.53;106099;1274;112432;-62
2022/09/16 04:22:54;;;;;;;29.30;16.90;;;;;;;13.51;75.93;97906.14;106022;1274;97982;-63
2022/09/16 04:25:22;;;;;;;32.30;16.90;;;;;;;13.51;75.93;97913.77;105998;1274;107824;-67
2022/09/16 04:27:49;;;;;;;28.30;16.30;;;;;;;13.50;75.91;97918.66;105979;1274;97921;-67
2022/09/16 04:30:19;;;;;;;27.50;15.30;;;;;;;13.50;75.92;97917.09;106062;1274;98563;-64
2022/09/16 04:32:47;;;;;;;30.40;17.00;;;;;;;13.49;76.00;97916.85;106160;1274;111701;-66
2022/09/16 04:35:18;;;;;;;29.50;15.30;;;;;;;13.48;76.01;97908.59;106142;1274;96880;-65
2022/09/16 04:37:48;;;;;;;25.70;15.30;;;;;;;13.46;75.98;97911.65;106072;1274;107250;-63
2022/09/16 04:40:16;;;;;;;30.30;16.20;;;;;;;13.42;75.89;97915.79;106032;1274;97965;-65
2022/09/16 04:42:49;;;;;;;27.80;14.50;;;;;;;13.40;75.88;97922.70;106065;1274;97864;-64
2022/09/16 04:45:17;;;;;;;26.80;15.00;;;;;;;13.41;75.91;97926.24;105790;1274;112080;-64
2022/09/16 04:47:46;;;;;;;27.90;14.70;;;;;;;13.39;75.96;97933.47;105960;1274;96334;-65
2022/09/16 04:50:15;;;;;;;28.70;14.40;;;;;;;13.39;75.99;97934.39;105920;1274;108366;-65
2022/09/16 04:52:43;;;;;;;24.30;14.60;;;;;;;13.39;75.91;97933.34;105934;1274;97647;-63
2022/09/16 04:55:10;;;;;;;28.00;15.60;;;;;;;13.38;75.84;97933.98;106138;1274;96324;-64
2022/09/16 04:57:40;;;;;;;29.00;15.30;;;;;;;13.37;75.91;97932.80;106116;1274;111994;-65
2022/09/16 05:00:10;;;;;;;24.20;14.70;;;;;;;13.36;75.75;97937.42;105941;1274;96309;-64
2022/09/16 05:02:38;;;;;;;25.70;13.90;;;;;;;13.35;75.85;97942.98;107838;1273;108238;-64
2022/09/16 05:05:06;;;;;;;25.40;13.10;;;;;;;13.34;75.93;97943.04;107872;1274;95812;-64
2022/09/16 05:07:34;;;;;;;24.70;13.40;;;;;;;13.34;75.88;97941.30;107907;1271;95910;-64
2022/09/16 05:10:03;;;;;;;23.40;13.60;;;;;;;13.35;75.83;97943.19;107871;1274;111997;-64
2022/09/16 05:12:31;;;;;;;25.10;13.30;;;;;;;13.38;75.90;97943.07;107910;1273;95921;-64
2022/09/16 05:14:59;;;;;;;23.30;12.70;;;;;;;13.39;75.82;97944.71;107339;1274;107823;-64
2022/09/16 05:17:31;;;;;;;24.90;12.50;;;;;;;13.41;75.88;97954.34;106025;1274;98047;-64
2022/09/16 05:20:19;;;;;;;24.60;12.30;;;;;;;13.45;75.90;97948.81;106211;1274;97933;-64
2022/09/16 05:22:50;;;;;;;25.30;13.70;;;;;;;13.49;75.93;97936.64;106038;1274;112006;-65
2022/09/16 05:25:18;;;;;;;22.30;11.90;;;;;;;13.50;75.89;97938.29;106029;1274;97941;-64
2022/09/16 05:27:46;;;;;;;24.90;12.00;;;;;;;13.51;75.80;97934.79;106085;1274;107539;-64
2022/09/16 05:30:16;;;;;;;22.30;11.60;;;;;;;13.51;75.86;97939.96;105933;1274;97973;-63
2022/09/16 05:32:53;;;;;;;24.30;12.10;;;;;;;13.52;75.89;97949.48;105992;1274;97967;-63
2022/09/16 05:35:21;;;;;;;24.00;12.00;;;;;;;13.54;75.90;97956.89;105925;1274;111082;-64
2022/09/16 05:37:49;;;;;;;22.90;11.90;;;;;;;13.57;75.83;97964.54;105928;1274;95265;-64
2022/09/16 05:40:18;;;;;;;25.20;12.30;;;;;;;13.59;75.97;97965.90;105886;1274;109659;-65
2022/09/16 05:42:48;;;;;;;23.90;11.30;;;;;;;13.61;75.89;97960.86;105915;1274;95297;-62
2022/09/16 05:45:16;;;;;;;23.20;11.50;;;;;;;13.65;75.95;97958.98;106031;1274;97883;-64
2022/09/16 05:47:53;;;;;;;20.90;10.40;;;;;;;13.68;75.84;97959.73;106052;1274;112074;-64
2022/09/16 05:50:21;;;;;;;23.90;11.60;;;;;;;13.71;75.84;97961.11;106059;1274;97906;-64
2022/09/16 05:52:48;;;;;;;22.40;10.30;;;;;;;13.72;75.86;97961.85;106101;1274;107031;-66
2022/09/16 05:55:16;;;;;;;25.20;11.00;;;;;;;13.75;75.84;97966.25;105958;1274;95268;-66
2022/09/16 05:57:45;;;;;;;23.50;9.50;;;;;;;13.75;75.76;97967.79;106051;1274;97863;-65
2022/09/16 06:00:14;;;;;;;22.10;9.80;;;;;;;13.78;75.79;97964.99;105995;1274;112060;-64
2022/09/16 06:02:42;;;;;;;20.40;9.30;;;;;;;13.83;75.81;97968.03;106027;1274;97838;-64
2022/09/16 06:05:12;;;;;;;18.90;9.20;;;;;;;13.92;75.77;97969.09;105905;1274;108393;-64
2022/09/16 06:07:40;;;;;;;21.00;9.10;;;;;;;14.00;75.80;97974.15;105951;1274;98000;-64
2022/09/16 06:10:08;;;;;;;21.60;9.20;;;;;;;14.07;75.71;97976.85;106089;1274;97867;-64
2022/09/16 06:12:36;;;;;;;17.50;8.10;;;;;;;14.16;75.74;97974.25;106148;1274;112021;-63
2022/09/16 06:15:06;;;;;;;21.30;8.80;;;;;;;14.24;75.69;97973.64;106062;1274;97915;-66
2022/09/16 06:17:35;;;;;;;20.10;8.00;;;;;;;14.32;75.64;97972.33;106045;1274;108313;-64
2022/09/16 06:20:06;;;;;;;19.40;7.70;;;;;;;14.37;75.59;97964.38;105949;1276;96509;-63
2022/09/16 06:22:35;;;;;;;15.20;6.70;;;;;;;14.45;75.63;97965.10;106081;1274;97928;-64
2022/09/16 06:25:04;;;;;;;17.00;6.70;;;;;;;14.52;75.56;97973.05;106067;1274;112108;-65
2022/09/16 06:27:32;;;;;;;16.80;6.90;;;;;;;14.58;75.49;97975.94;106188;1274;97999;-64
2022/09/16 06:30:00;;;;;;;16.30;6.80;;;;;;;14.62;75.57;97974.78;106061;1275;108359;-64
2022/09/16 06:32:31;;;;;;;14.30;6.00;;;;;;;14.67;75.49;97973.44;106009;1274;97996;-64
2022/09/16 06:34:59;;;;;;;16.60;6.10;;;;;;;14.70;75.35;97977.70;105868;1274;97918;-64
2022/09/16 06:37:27;;;;;;;17.60;5.70;;;;;;;14.69;75.29;97973.52;105890;1274;111804;-64
2022/09/16 06:39:55;;;;;;;12.60;5.20;;;;;;;14.75;75.31;97977.39;105956;1274;97877;-65
2022/09/16 06:42:23;;;;;;;14.40;5.90;;;;;;;14.80;75.22;97968.41;106228;1274;108264;-64
2022/09/16 06:44:52;;;;;;;13.40;4.90;;;;;;;14.84;75.18;97966.20;105965;1274;98076;-65
2022/09/16 06:47:21;;;;;;;15.10;5.50;;;;;;;14.88;75.10;97964.37;106143;1274;96354;-63
2022/09/16 06:49:50;;;;;;;11.60;4.60;;;;;;;14.95;75.01;97960.23;106005;1274;111954;-64
2022/09/16 06:52:19;;;;;;;13.80;5.60;;;;;;;15.04;75.14;97958.34;106101;1274;96578;-64
2022/09/16 06:54:47;;;;;;;14.90;4.80;;;;;;;15.13;75.01;97961.89;106084;1274;108435;-63
2022/09/16 06:57:21;;;;;;;13.60;4.80;;;;;;;15.20;74.87;97968.08;106077;1274;95239;-64
2022/09/16 06:59:53;;;;;;;12.90;4.90;;;;;;;15.27;74.84;97968.75;106153;1274;97903;-63
2022/09/16 07:02:20;;;;;;;13.40;4.90;;;;;;;15.32;74.79;97969.77;106033;1274;112031;-65
2022/09/16 07:04:49;;;;;;;15.10;5.00;;;;;;;15.37;74.81;97969.43;106127;1274;97848;-64
2022/09/16 07:07:18;;;;;;;12.20;4.60;;;;;;;15.39;74.57;97973.52;106028;1271;108331;-62
2022/09/16 07:09:46;;;;;;;13.50;5.40;;;;;;;15.46;74.65;97967.34;106124;1274;97496;-65
2022/09/16 07:12:14;;;;;;;14.10;5.30;;;;;;;15.52;74.58;97969.94;106114;1274;98540;-65
2022/09/16 07:14:47;;;;;;;15.10;5.80;;;;;;;15.54;74.43;97972.91;106159;1274;112185;-64
2022/09/16 07:17:15;;;;;;;12.70;4.80;;;;;;;15.58;74.46;97972.85;106074;1274;96365;-64
2022/09/16 07:19:43;;;;;;;11.60;4.70;;;;;;;15.66;74.55;97974.61;106040;1274;108370;-64
2022/09/16 07:22:13;;;;;;;14.30;4.60;;;;;;;15.73;74.28;97972.64;106028;1274;97886;-64
2022/09/16 07:24:41;;;;;;;11.30;4.50;;;;;;;15.78;74.19;97987.61;106098;1274;97964;-65
2022/09/16 07:27:10;;;;;;;12.10;4.70;;;;;;;15.84;74.05;97982.98;106083;1274;111983;-65
2022/09/16 07:29:38;;;;;;;19.40;5.90;;;;;;;15.90;74.11;97977.35;105997;1274;96273;-63
2022/09/16 07:32:07;;;;;;;14.00;4.60;;;;;;;16.04;73.88;97980.11;105995;1274;108259;-65
2022/09/16 07:34:36;;;;;;;10.70;4.20;;;;;;;16.69;72.92;97978.79;106043;1274;97895;-64
2022/09/16 07:37:05;;;;;;;12.30;3.60;;;;;;;17.98;71.30;97976.81;105986;1274;97948;-66
2022/09/16 07:39:33;;;;;;;8.80;3.40;;;;;;;19.17;70.67;97972.02;106020;1274;111719;-63
2022/09/16 07:42:03;;;;;;;9.00;2.90;;;;;;;19.75;71.30;97981.58;106089;1274;96341;-64
2022/09/16 07:44:33;;;;;;;10.30;3.20;;;;;;;20.27;70.87;97978.02;106142;1274;109185;-65
2022/09/16 07:47:02;;;;;;;16.00;4.10;;;;;;;20.24;71.56;97979.04;106139;1274;97960;-62
2022/09/16 07:49:30;;;;;;;8.80;3.20;;;;;;;20.63;70.91;97986.98;106056;1274;97845;-65
2022/09/16 07:51:59;;;;;;;8.10;2.90;;;;;;;21.27;70.00;97986.66;106020;1274;111959;-64
2022/09/16 07:54:27;;;;;;;7.50;3.10;;;;;;;21.63;70.35;97984.27;106056;1274;97493;-64
2022/09/16 07:56:56;;;;;;;7.20;3.30;;;;;;;21.95;70.50;97982.64;105959;1274;108465;-65
2022/09/16 07:59:24;;;;;;;13.50;3.50;;;;;;;22.51;70.29;97976.86;106026;1274;96976;-63
2022/09/16 08:01:52;;;;;;;9.20;3.10;;;;;;;22.76;70.10;97978.13;105916;1275;97975;-65
2022/09/16 08:04:21;;;;;;;11.10;3.50;;;;;;;23.50;69.17;97975.24;106187;1274;112035;-62
2022/09/16 08:06:51;;;;;;;8.40;3.00;;;;;;;23.97;69.23;97977.13;106118;1274;95506;-63
2022/09/16 08:09:20;;;;;;;8.90;3.50;;;;;;;23.92;69.83;97979.70;106037;1275;108488;-64
2022/09/16 08:12:09;;;;;;;12.20;3.90;;;;;;;24.08;69.47;97975.77;106175;1274;96455;-64
2022/09/16 08:14:39;;;;;;;15.40;3.70;;;;;;;24.18;69.20;97971.34;106141;1274;97869;-62
2022/09/16 08:17:07;;;;;;;8.90;3.70;;;;;;;24.58;69.23;97971.33;106113;1274;110189;-63
2022/09/16 08:19:37;;;;;;;10.00;4.10;;;;;;;24.50;68.71;97971.89;106226;1274;96196;-64
2022/09/16 08:22:07;;;;;;;9.70;3.50;;;;;;;25.16;68.15;97976.64;106057;1274;108428;-64
2022/09/16 08:24:35;;;;;;;8.90;3.80;;;;;;;25.43;68.25;97979.70;105957;1274;97882;-64
2022/09/16 08:27:03;;;;;;;12.00;3.90;;;;;;;25.72;68.32;97977.57;106056;1274;97980;-65
2022/09/16 08:29:32;;;;;;;13.50;4.50;;;;;;;25.75;68.41;97975.30;105943;1275;111874;-66
2022/09/16 08:32:01;;;;;;;8.50;3.50;;;;;;;25.88;68.06;97975.69;105998;1274;95603;-65
2022/09/16 08:34:30;;;;;;;9.80;3.50;;;;;;;26.03;67.01;97984.73;105945;1276;108181;-65
2022/09/16 08:36:58;;;;;;;11.50;4.10;;;;;;;25.97;67.15;97981.33;106071;1274;97895;-64
2022/09/16 08:39:27;;;;;;;12.80;3.40;;;;;;;26.12;66.76;97979.99;106103;1274;98020;-66
2022/09/16 08:42:30;;;;;;;10.40;3.40;;;;;;;25.92;66.35;97979.98;106136;1274;111935;-67
2022/09/16 08:45:08;;;;;;;10.30;3.30;;;;;;;25.51;66.49;97979.90;105948;1274;98940;-62
2022/09/16 08:48:06;;;;;;;12.50;3.20;;;;;;;25.38;65.93;97985.89;105956;1274;107902;-64
2022/09/16 08:50:42;;;;;;;6.40;2.80;;;;;;;25.11;65.27;97988.14;106148;1274;98582;-63
2022/09/16 08:53:19;;;;;;;7.20;2.80;;;;;;;25.27;64.62;97984.52;106228;1274;97883;-64
2022/09/16 08:55:50;;;;;;;7.30;2.90;;;;;;;25.02;64.87;97986.67;106094;1274;111314;-63
2022/09/16 08:58:26;;;;;;;7.10;2.60;;;;;;;25.26;64.53;97980.36;106095;1274;96578;-64
2022/09/16 09:01:03;;;;;;;9.40;3.00;;;;;;;25.09;64.15;97987.67;105948;1274;107841;-64
2022/09/16 09:03:41;;;;;;;7.40;2.80;;;;;;;24.69;64.32;97995.49;106055;1274;98002;-64
2022/09/16 09:06:27;;;;;;;9.30;2.90;;;;;;;24.14;63.92;97994.01;105993;1273;95301;-63
2022/09/16 09:09:02;;;;;;;10.40;3.50;;;;;;;23.62;63.46;97993.77;105961;1274;112489;-65
2022/09/16 09:11:58;;;;;;;6.60;2.80;;;;;;;23.05;63.24;97990.41;106036;1274;96316;-63
2022/09/16 09:14:40;;;;;;;8.90;2.60;;;;;;;22.50;63.02;97993.64;105981;1274;108793;-62
2022/09/16 09:17:35;;;;;;;9.80;2.80;;;;;;;22.12;63.16;98001.20;106046;1274;97982;-63
2022/09/16 09:20:24;;;;;;;10.10;3.00;;;;;;;21.82;62.90;98000.08;105986;1275;97893;-64
2022/09/16 09:23:02;;;;;;;12.20;2.70;;;;;;;21.42;62.25;98001.83;106143;1274;111970;-63
2022/09/16 09:25:46;;;;;;;6.70;2.70;;;;;;;21.06;62.07;97997.26;106045;1274;97858;-63
2022/09/16 09:28:22;;;;;;;;;;;;;;;20.92;61.79;97994.90;106008;1274;108312;-63
2022/09/16 09:31:18;;;;;;;7.10;2.90;;;;;;;20.74;61.63;97993.30;106112;1274;97882;-64
2022/09/16 09:34:01;;;;;;;7.80;2.60;;;;;;;20.66;61.35;97998.05;105974;1274;98489;-61
2022/09/16 09:36:35;;;;;;;8.30;2.40;;;;;;;20.43;61.20;97998.45;106084;1274;111972;-63
2022/09/16 09:39:22;;;;;;;5.60;2.20;;;;;;;20.06;60.52;98005.32;106044;1274;97585;-64
2022/09/16 09:42:10;;;;;;;10.50;3.20;;;;;;;19.53;60.62;97996.60;106141;1274;108348;-65
2022/09/16 09:45:02;;;;;;;11.70;2.80;;;;;;;19.24;60.66;97998.83;106096;1274;96545;-64
2022/09/16 09:47:46;;;;;;;11.50;3.20;;;;;;;18.94;60.38;97991.34;106132;1274;97879;-63
2022/09/16 09:50:39;;;;;;;10.40;2.90;;;;;;;18.72;60.31;97989.92;106001;1274;112036;-65
2022/09/16 09:53:11;;;;;;;5.70;2.80;;;;;;;18.67;60.21;97988.73;106003;1274;97356;-64
2022/09/16 09:55:42;;;;;;;5.70;2.60;;;;;;;18.65;60.12;97993.30;105995;1274;109149;-65
2022/09/16 09:58:21;;;;;;;10.00;3.20;;;;;;;18.66;59.93;97993.61;106124;1274;97872;-64
2022/09/16 10:00:54;;;;;;;8.90;2.80;;;;;;;18.59;59.91;97992.17;106143;1274;97838;-64
2022/09/16 10:03:26;;;;;;;11.80;3.00;;;;;;;18.57;59.79;97994.23;106036;1274;111643;-66
2022/09/16 10:05:54;;;;;;;6.50;2.60;;;;;;;18.50;59.68;97995.74;106169;1274;97969;-65
2022/09/16 10:08:35;;;;;;;7.10;2.80;;;;;;;18.45;59.72;97992.01;106110;1277;107344;-66
2022/09/16 10:11:16;;;;;;;6.40;2.50;;;;;;;18.43;59.61;97992.23;106052;1277;97894;-68
2022/09/16 10:13:54;;;;;;;10.40;3.10;;;;;;;18.37;59.53;97994.02;106120;1274;97824;-67
2022/09/16 10:16:26;;;;;;;16.20;3.80;;;;;;;18.31;59.39;97995.35;106089;1274;110267;-65
2022/09/16 10:19:16;;;;;;;7.80;2.80;;;;;;;18.23;59.34;97996.50;106062;1274;97689;-65
2022/09/16 10:21:49;;;;;;;9.60;3.10;;;;;;;18.18;59.34;97999.20;105973;1274;108272;-64
2022/09/16 10:24:31;;;;;;;8.20;3.10;;;;;;;18.12;59.31;97991.71;105934;1274;98290;-64
2022/09/16 10:27:16;;;;;;;8.10;2.80;;;;;;;18.08;59.30;97994.09;105972;1274;97848;-64
2022/09/16 10:29:44;;;;;;;16.00;2.80;;;;;;;18.06;59.16;97989.23;105932;1274;112083;-65
2022/09/16 10:32:18;;;;;;;13.10;3.00;;;;;;;18.06;59.29;97987.95;105880;1275;96643;-68
2022/09/16 10:34:47;;;;;;;7.50;2.60;;;;;;;18.04;59.12;97988.14;105911;1274;108240;-69
2022/09/16 10:37:18;;;;;;;6.50;2.90;;;;;;;18.03;59.12;97988.45;105903;1274;97966;-72
2022/09/16 10:39:54;;;;;;;6.40;2.60;;;;;;;17.98;58.91;97988.79;106144;1274;97867;-71
2022/09/16 10:42:28;;;;;;;8.60;2.80;;;;;;;17.94;58.93;97991.06;106168;1274;112168;-70
2022/09/16 10:45:18;;;;;;;7.10;2.80;;;;;;;17.91;58.73;97993.95;106097;1274;97867;-70
2022/09/16 10:47:51;;;;;;;9.20;2.90;;;;;;;17.87;58.74;97989.45;105965;1274;108421;-69
2022/09/16 10:50:20;;;;;;;14.40;3.00;;;;;;;17.85;58.79;97989.80;106052;1274;97944;-69
2022/09/16 10:52:51;;;;;;;7.90;2.50;;;;;;;17.85;58.87;97985.12;106232;1274;97878;-69
2022/09/16 10:55:22;;;;;;;8.90;3.10;;;;;;;17.83;58.76;97987.37;106098;1274;112028;-69
2022/09/16 10:57:52;;;;;;;9.40;2.70;;;;;;;17.82;58.47;97986.23;106035;1274;96358;-69
2022/09/16 11:00:32;;;;;;;6.00;2.80;;;;;;;17.80;58.69;97989.52;106074;1274;107804;-70
2022/09/16 11:03:23;;;;;;;6.40;2.60;;;;;;;17.80;58.49;97995.67;106043;1274;97922;-69
2022/09/16 11:06:10;;;;;;;9.30;2.50;;;;;;;17.78;58.52;97992.63;105969;1274;97977;-66
2022/09/16 11:09:04;;;;;;;8.90;3.20;;;;;;;17.71;58.53;97993.27;105993;1274;112131;-71
2022/09/16 11:12:03;;;;;;;6.20;2.70;;;;;;;17.64;58.50;97994.79;106026;1274;97907;-71
2022/09/16 11:15:01;;;;;;;9.70;3.40;;;;;;;17.56;58.43;97997.80;105950;1277;108582;-68
2022/09/16 11:17:49;;;;;;;9.20;3.10;;;;;;;17.46;58.48;97995.61;106081;1274;96215;-69
2022/09/16 11:20:55;;;;;;;10.80;3.70;;;;;;;17.36;58.49;98000.70;105969;1274;98531;-67
2022/09/16 11:23:42;;;;;;;10.90;3.40;;;;;;;17.28;58.42;97997.73;106119;1274;112070;-67
2022/09/16 11:26:42;;;;;;;12.30;3.60;;;;;;;17.22;58.78;98002.13;106062;1274;95438;-67
2022/09/16 11:29:32;;;;;;;10.80;3.30;;;;;;;17.16;58.64;98005.91;105956;1274;108332;-69
2022/09/16 11:32:19;;;;;;;7.50;2.90;;;;;;;17.11;58.70;98006.85;105980;1274;97947;-66
2022/09/16 11:34:56;;;;;;;10.90;2.90;;;;;;;17.00;58.62;98001.80;105977;1274;97860;-66
2022/09/16 11:37:56;;;;;;;10.50;3.20;;;;;;;16.96;58.57;98000.30;106007;1274;112028;-66
2022/09/16 11:40:44;;;;;;;11.00;3.20;;;;;;;16.91;58.75;98000.08;106021;1274;96698;-68
2022/09/16 11:43:38;;;;;;;10.30;3.60;;;;;;;16.90;58.83;97995.84;105875;1274;108299;-68
2022/09/16 11:46:22;;;;;;;10.80;3.30;;;;;;;16.87;58.84;97991.45;105870;1275;97980;-67
2022/09/16 11:49:39;;;;;;;10.50;3.40;;;;;;;16.86;58.85;97991.20;105877;1274;97950;-67